Time;durP1;ratioP1;P1;durP2;ratioP2;P2;SDS_P1;SDS_P2;PMS_P1;PMS_P2;Temp;Humidity;BMP_temperature;BMP_pressure;BME280_temperature;BME280_humidity;BME280_pressure;Samples;Min_cycle;Max_cycle;Signal;HPM_P1;HPM_P2
2022/06/20 00:01:36;;;;;;;3.38;2.80;;;15.80;99.90;;;;;;5032036;28;20215;-87
2022/06/20 00:04:02;;;;;;;3.08;2.38;;;15.70;99.90;;;;;;5025120;28;20222;-86
2022/06/20 00:06:27;;;;;;;4.60;2.63;;;15.80;99.90;;;;;;5046395;28;20183;-86
2022/06/20 00:08:53;;;;;;;3.63;2.40;;;15.70;99.90;;;;;;5045143;28;20187;-87
2022/06/20 00:11:26;;;;;;;2.65;2.20;;;15.70;99.90;;;;;;5029044;28;20547;-87
2022/06/20 00:13:54;;;;;;;5.97;3.10;;;15.80;99.90;;;;;;5029522;28;20254;-87
2022/06/20 00:16:21;;;;;;;5.20;3.30;;;15.80;99.90;;;;;;5029335;28;20232;-87
2022/06/20 00:18:47;;;;;;;3.55;2.75;;;15.80;99.90;;;;;;5017325;28;20616;-88
2022/06/20 00:21:16;;;;;;;4.80;3.90;;;15.70;99.90;;;;;;5027078;28;20214;-88
2022/06/20 00:23:42;;;;;;;4.45;3.40;;;15.50;99.90;;;;;;5029240;28;20598;-86
2022/06/20 00:26:08;;;;;;;5.55;3.80;;;15.40;99.90;;;;;;5030117;28;20372;-86
2022/06/20 00:28:34;;;;;;;4.90;3.45;;;15.40;99.90;;;;;;5044398;28;20183;-86
2022/06/20 00:31:00;;;;;;;4.75;3.60;;;15.40;99.90;;;;;;5045528;28;20214;-88
2022/06/20 00:33:26;;;;;;;4.03;3.63;;;15.40;99.90;;;;;;5027779;28;20175;-87
2022/06/20 00:35:53;;;;;;;4.75;4.05;;;15.40;99.90;;;;;;5019098;28;20189;-86
2022/06/20 00:38:20;;;;;;;5.25;4.07;;;15.40;99.90;;;;;;5045394;28;20194;-87
2022/06/20 00:40:50;;;;;;;5.60;4.43;;;15.50;99.90;;;;;;5028691;28;20654;-88
2022/06/20 00:43:36;;;;;;;4.85;4.15;;;15.60;99.90;;;;;;5021068;28;20550;-86
2022/06/20 00:46:06;;;;;;;4.90;3.95;;;15.50;99.90;;;;;;5017292;28;20176;-86
2022/06/20 00:48:45;;;;;;;6.68;4.95;;;15.60;99.90;;;;;;5043456;28;20179;-86
2022/06/20 00:51:28;;;;;;;6.50;4.10;;;15.60;99.90;;;;;;5027317;28;20348;-87
2022/06/20 00:54:18;;;;;;;4.72;4.15;;;15.60;99.90;;;;;;5044015;28;20225;-86
2022/06/20 00:56:50;;;;;;;5.05;4.50;;;15.70;99.90;;;;;;5017840;28;20222;-87
2022/06/20 00:59:21;;;;;;;5.82;4.10;;;15.70;99.90;;;;;;5016178;28;20295;-86
2022/06/20 01:01:48;;;;;;;4.38;3.97;;;15.70;99.90;;;;;;5026628;28;20211;-88
2022/06/20 01:04:18;;;;;;;6.50;4.88;;;15.60;99.90;;;;;;5043636;28;20183;-86
2022/06/20 01:06:53;;;;;;;4.63;4.13;;;15.40;99.90;;;;;;5027644;28;20667;-88
2022/06/20 01:09:21;;;;;;;6.95;4.63;;;15.40;99.90;;;;;;5018449;28;20689;-86
2022/06/20 01:11:53;;;;;;;4.60;3.95;;;15.40;99.90;;;;;;5043697;28;20293;-89
2022/06/20 01:14:25;;;;;;;4.53;4.13;;;15.40;99.90;;;;;;5027067;28;20178;-87
2022/06/20 01:16:54;;;;;;;5.30;4.32;;;15.40;99.90;;;;;;5025893;28;20175;-87
2022/06/20 01:19:48;;;;;;;5.40;4.63;;;15.40;99.90;;;;;;5041811;28;20179;-85
2022/06/20 01:22:45;;;;;;;5.82;4.53;;;15.40;99.90;;;;;;5025759;28;20187;-87
2022/06/20 01:26:00;;;;;;;6.30;4.40;;;15.40;99.90;;;;;;5041840;28;20179;-87
2022/06/20 01:28:38;;;;;;;6.00;4.30;;;15.40;99.90;;;;;;5008142;28;20203;-89
2022/06/20 01:31:05;;;;;;;4.97;4.50;;;15.40;99.90;;;;;;5017816;28;20217;-86
2022/06/20 01:33:31;;;;;;;5.00;4.32;;;15.40;99.90;;;;;;5026485;28;20179;-86
2022/06/20 01:38:44;;;;;;;5.95;4.78;;;15.40;99.90;;;;;;5025114;28;20190;-88
2022/06/20 01:43:58;;;;;;;6.57;4.72;;;15.40;99.90;;;;;;5027011;28;20198;-86
2022/06/20 01:46:27;;;;;;;7.00;5.10;;;15.40;99.90;;;;;;5018796;28;20277;-86
2022/06/20 01:48:59;;;;;;;5.82;5.00;;;15.30;99.90;;;;;;5016722;28;20198;-87
2022/06/20 01:51:30;;;;;;;6.20;5.47;;;15.40;99.90;;;;;;5025862;28;20214;-88
2022/06/20 01:53:57;;;;;;;5.88;4.90;;;15.40;99.90;;;;;;5018582;28;20175;-90
2022/06/20 01:56:24;;;;;;;7.60;5.32;;;15.40;99.90;;;;;;5041979;28;20179;-86
2022/06/20 01:58:59;;;;;;;7.20;5.38;;;15.40;99.90;;;;;;5025932;28;20187;-87
2022/06/20 02:01:29;;;;;;;7.53;5.03;;;15.40;99.90;;;;;;5025907;28;20285;-86
2022/06/20 02:04:21;;;;;;;5.70;5.10;;;15.40;99.90;;;;;;5040513;28;20321;-87
2022/06/20 02:06:48;;;;;;;7.15;5.25;;;15.40;99.90;;;;;;5024215;28;20178;-87
2022/06/20 02:09:14;;;;;;;8.00;6.13;;;15.40;99.90;;;;;;5025555;28;20214;-87
2022/06/20 02:11:42;;;;;;;6.57;5.97;;;15.50;99.90;;;;;;5024330;28;20211;-86
2022/06/20 02:14:23;;;;;;;5.90;5.28;;;15.50;99.90;;;;;;5024548;28;20226;-86
2022/06/20 02:16:58;;;;;;;6.00;5.43;;;15.60;99.90;;;;;;5017061;28;20171;-86
2022/06/20 02:19:31;;;;;;;5.35;4.85;;;15.50;99.90;;;;;;5024674;28;20186;-89
2022/06/20 02:22:03;;;;;;;5.35;4.93;;;15.60;99.90;;;;;;5024310;28;20217;-87
2022/06/20 02:24:33;;;;;;;5.90;4.90;;;15.60;99.90;;;;;;5040699;28;20197;-86
2022/06/20 02:27:02;;;;;;;6.63;5.22;;;15.60;99.90;;;;;;5016324;28;20186;-88
2022/06/20 02:29:29;;;;;;;6.78;4.75;;;15.60;99.90;;;;;;5024097;28;20183;-86
2022/06/20 02:32:06;;;;;;;5.45;4.68;;;15.60;99.90;;;;;;5017584;28;20310;-86
2022/06/20 02:34:32;;;;;;;5.32;4.90;;;15.60;99.90;;;;;;5039581;28;20676;-89
2022/06/20 02:37:03;;;;;;;7.32;5.38;;;15.60;99.90;;;;;;5041130;28;20214;-86
2022/06/20 02:39:30;;;;;;;5.97;5.38;;;15.60;99.90;;;;;;5025395;28;20179;-86
2022/06/20 02:42:01;;;;;;;5.75;5.07;;;15.60;99.90;;;;;;5016408;28;20225;-87
2022/06/20 02:44:28;;;;;;;5.55;4.45;;;15.60;99.90;;;;;;5016732;28;20205;-87
2022/06/20 02:46:54;;;;;;;5.20;4.70;;;15.60;99.90;;;;;;5024225;28;20191;-89
2022/06/20 02:49:24;;;;;;;4.90;4.50;;;15.50;99.90;;;;;;5041128;28;20217;-86
2022/06/20 02:51:52;;;;;;;5.57;5.00;;;15.30;99.90;;;;;;5023106;28;20218;-86
2022/06/20 02:54:23;;;;;;;7.75;5.55;;;15.30;99.90;;;;;;5019180;28;20179;-86
2022/06/20 02:57:00;;;;;;;7.53;5.05;;;15.30;99.90;;;;;;5044063;28;20273;-86
2022/06/20 02:59:32;;;;;;;6.05;5.53;;;15.30;99.90;;;;;;5028086;28;20174;-89
2022/06/20 03:02:02;;;;;;;6.10;5.55;;;15.40;99.90;;;;;;5027488;28;20210;-86
2022/06/20 03:04:30;;;;;;;6.47;5.75;;;15.40;99.90;;;;;;5026722;28;20179;-86
2022/06/20 03:07:03;;;;;;;7.18;6.30;;;15.40;99.90;;;;;;5020051;28;20179;-86
2022/06/20 03:09:33;;;;;;;6.93;5.32;;;15.30;99.90;;;;;;5044339;28;20205;-86
2022/06/20 03:12:01;;;;;;;8.40;5.22;;;15.30;99.90;;;;;;5027757;28;20207;-85
2022/06/20 03:14:33;;;;;;;7.35;4.95;;;15.30;99.90;;;;;;5026655;28;20179;-85
2022/06/20 03:16:59;;;;;;;7.82;6.05;;;15.40;99.90;;;;;;5019172;28;20523;-85
2022/06/20 03:19:27;;;;;;;6.78;5.95;;;15.30;99.90;;;;;;5027945;28;20236;-85
2022/06/20 03:21:57;;;;;;;6.50;5.70;;;15.00;99.90;;;;;;5043127;28;20304;-85
2022/06/20 03:24:24;;;;;;;8.88;7.10;;;14.90;99.90;;;;;;5026790;28;20186;-84
2022/06/20 03:26:51;;;;;;;8.88;6.43;;;14.90;99.90;;;;;;5017465;28;20246;-84
2022/06/20 03:29:19;;;;;;;7.88;6.50;;;14.80;99.90;;;;;;5019268;28;20183;-85
2022/06/20 03:31:44;;;;;;;7.10;6.50;;;14.90;99.90;;;;;;5017766;28;20696;-85
2022/06/20 03:34:12;;;;;;;9.93;6.70;;;15.00;99.90;;;;;;5026856;28;20181;-89
2022/06/20 03:36:40;;;;;;;7.88;6.65;;;15.10;99.90;;;;;;5028758;28;20187;-86
2022/06/20 03:39:06;;;;;;;8.40;7.45;;;15.20;99.90;;;;;;5045853;28;20198;-85
2022/06/20 03:41:32;;;;;;;8.13;6.43;;;15.20;99.90;;;;;;5027830;28;20647;-86
2022/06/20 03:44:06;;;;;;;9.38;6.38;;;15.20;99.90;;;;;;5029621;28;20187;-83
2022/06/20 03:47:01;;;;;;;10.73;6.50;;;15.20;99.90;;;;;;5032451;28;20209;-86
2022/06/20 03:49:32;;;;;;;9.38;6.30;;;15.20;99.90;;;;;;5037753;28;20197;-86
2022/06/20 03:52:07;;;;;;;9.55;6.45;;;15.20;99.90;;;;;;5046301;28;20238;-86
2022/06/20 03:54:53;;;;;;;7.95;6.63;;;15.10;99.90;;;;;;5020221;28;20592;-90
2022/06/20 03:57:28;;;;;;;8.82;7.35;;;15.00;99.90;;;;;;5044125;28;20171;-85
2022/06/20 04:00:03;;;;;;;9.70;6.47;;;15.10;99.90;;;;;;5023134;28;20182;-85
2022/06/20 04:02:49;;;;;;;8.98;7.35;;;15.00;99.90;;;;;;5030325;28;20179;-84
2022/06/20 04:05:32;;;;;;;10.23;7.75;;;15.00;99.90;;;;;;5024517;28;20174;-83
2022/06/20 04:08:07;;;;;;;11.13;7.78;;;14.90;99.90;;;;;;5031941;28;20242;-84
2022/06/20 04:10:57;;;;;;;11.63;7.97;;;14.70;99.90;;;;;;5022978;28;20213;-84
2022/06/20 04:13:26;;;;;;;10.77;8.10;;;14.80;99.90;;;;;;5028032;28;20206;-83
2022/06/20 04:16:01;;;;;;;9.80;8.00;;;14.80;99.90;;;;;;5027708;28;20260;-83
2022/06/20 04:19:09;;;;;;;10.70;7.25;;;14.70;99.90;;;;;;5026067;28;20179;-83
2022/06/20 04:21:41;;;;;;;8.57;7.68;;;14.60;99.90;;;;;;5011747;28;20214;-86
2022/06/20 04:24:14;;;;;;;8.07;7.38;;;14.60;99.90;;;;;;5020998;28;20175;-84
2022/06/20 04:27:01;;;;;;;8.55;7.70;;;14.60;99.90;;;;;;5028885;28;20241;-83
2022/06/20 04:29:41;;;;;;;8.20;7.40;;;14.50;99.90;;;;;;5029281;28;20175;-84
2022/06/20 04:32:15;;;;;;;8.32;6.82;;;14.60;99.90;;;;;;5017919;28;20207;-83
2022/06/20 04:34:42;;;;;;;8.10;7.03;;;14.50;99.90;;;;;;5019707;28;20371;-87
2022/06/20 04:37:28;;;;;;;9.07;8.25;;;14.60;99.90;;;;;;5018465;28;20210;-83
2022/06/20 04:40:09;;;;;;;8.90;8.10;;;14.60;99.90;;;;;;5027705;28;20182;-84
2022/06/20 04:42:49;;;;;;;8.82;7.93;;;14.60;99.90;;;;;;5027369;28;20183;-83
2022/06/20 04:45:18;;;;;;;8.68;7.88;;;14.60;99.90;;;;;;5026145;28;20182;-84
2022/06/20 04:48:06;;;;;;;11.55;8.82;;;14.50;99.90;;;;;;5018087;28;20187;-84
2022/06/20 04:50:34;;;;;;;10.05;8.38;;;14.20;99.90;;;;;;5024966;28;20203;-84
2022/06/20 04:53:09;;;;;;;9.00;8.10;;;14.00;99.90;;;;;;5016429;28;20695;-84
2022/06/20 04:55:38;;;;;;;8.20;7.40;;;14.00;99.90;;;;;;5018589;28;20201;-88
2022/06/20 04:58:08;;;;;;;8.32;7.38;;;14.00;99.90;;;;;;5017716;28;20531;-87
2022/06/20 05:00:41;;;;;;;8.18;7.47;;;14.00;99.90;;;;;;5025668;28;20203;-85
2022/06/20 05:03:08;;;;;;;7.75;7.05;;;14.00;99.90;;;;;;5018209;28;20735;-84
2022/06/20 05:05:39;;;;;;;7.00;6.30;;;14.00;99.90;;;;;;5027083;28;20190;-85
2022/06/20 05:08:10;;;;;;;7.50;6.50;;;13.80;99.90;;;;;;5021118;28;20301;-83
2022/06/20 05:10:51;;;;;;;7.20;6.50;;;13.80;99.90;;;;;;5024638;28;20238;-83
2022/06/20 05:13:22;;;;;;;5.57;5.07;;;13.70;99.90;;;;;;5026127;28;20183;-84
2022/06/20 05:15:50;;;;;;;5.97;5.38;;;13.80;99.90;;;;;;5024644;28;20407;-89
2022/06/20 05:18:43;;;;;;;5.43;4.95;;;13.90;99.90;;;;;;5025347;28;20183;-86
2022/06/20 05:21:27;;;;;;;5.50;5.00;;;14.00;99.90;;;;;;5025187;28;20219;-84
2022/06/20 05:23:57;;;;;;;4.75;4.35;;;14.00;99.90;;;;;;5025850;28;20558;-85
2022/06/20 05:26:30;;;;;;;5.30;4.80;;;14.10;99.90;;;;;;5018810;28;20586;-84
2022/06/20 05:28:58;;;;;;;4.88;4.47;;;14.30;99.90;;;;;;5024375;28;20191;-87
2022/06/20 05:31:42;;;;;;;4.55;4.15;;;14.40;99.90;;;;;;5017370;28;20223;-89
2022/06/20 05:34:22;;;;;;;4.90;4.50;;;14.50;99.90;;;;;;5024449;28;20194;-83
2022/06/20 05:37:10;;;;;;;4.78;4.28;;;14.60;99.90;;;;;;5022927;28;20193;-85
2022/06/20 05:39:45;;;;;;;5.03;4.30;;;14.60;99.90;;;;;;5026530;28;20175;-83
2022/06/20 05:42:14;;;;;;;4.30;4.00;;;14.70;99.90;;;;;;5042007;28;20206;-89
2022/06/20 05:44:40;;;;;;;5.38;4.45;;;14.70;99.90;;;;;;5042724;28;20281;-86
2022/06/20 05:47:14;;;;;;;4.57;4.20;;;14.70;99.90;;;;;;5040738;28;20302;-86
2022/06/20 05:50:07;;;;;;;4.30;3.90;;;14.80;99.90;;;;;;5024258;28;20619;-83
2022/06/20 05:52:35;;;;;;;5.20;4.70;;;14.80;99.90;;;;;;5018397;28;20227;-87
2022/06/20 05:55:05;;;;;;;4.22;3.83;;;14.70;99.90;;;;;;5042514;28;20650;-84
2022/06/20 05:57:34;;;;;;;4.15;3.75;;;14.70;99.90;;;;;;5027439;28;20751;-86
2022/06/20 06:00:11;;;;;;;4.57;4.18;;;14.70;99.90;;;;;;5042016;28;20265;-84
2022/06/20 06:02:44;;;;;;;4.45;4.05;;;14.70;99.90;;;;;;5025486;28;20217;-84
2022/06/20 06:05:32;;;;;;;5.25;4.75;;;14.80;99.90;;;;;;5026372;28;20245;-85
2022/06/20 06:08:09;;;;;;;4.50;4.10;;;14.80;99.90;;;;;;5016923;28;20183;-86
2022/06/20 06:11:13;;;;;;;4.57;4.07;;;14.90;99.90;;;;;;5042327;28;20199;-83
2022/06/20 06:13:46;;;;;;;4.55;4.15;;;14.90;99.90;;;;;;5006655;28;20244;-84
2022/06/20 06:16:49;;;;;;;5.00;3.95;;;14.90;99.90;;;;;;5017449;28;20215;-83
2022/06/20 06:19:42;;;;;;;4.13;3.72;;;14.90;99.90;;;;;;5024469;28;20174;-87
2022/06/20 06:22:22;;;;;;;5.43;4.90;;;14.90;99.90;;;;;;5026711;28;20727;-83
2022/06/20 06:24:52;;;;;;;5.18;4.68;;;15.10;99.90;;;;;;5026167;28;20656;-84
2022/06/20 06:27:22;;;;;;;5.80;5.30;;;15.00;99.90;;;;;;5042605;28;20195;-83
2022/06/20 06:29:54;;;;;;;5.00;4.55;;;15.20;99.90;;;;;;5048418;28;20547;-84
2022/06/20 06:32:27;;;;;;;5.18;4.78;;;15.30;99.90;;;;;;5047132;28;20207;-84
2022/06/20 06:35:03;;;;;;;5.53;5.03;;;15.20;99.90;;;;;;5049009;28;20187;-84
2022/06/20 06:37:50;;;;;;;5.30;4.78;;;15.20;99.90;;;;;;5032774;28;20316;-85
2022/06/20 06:40:39;;;;;;;5.78;5.28;;;15.10;99.90;;;;;;5034506;28;20195;-84
2022/06/20 06:43:38;;;;;;;7.72;5.63;;;15.10;99.90;;;;;;5030798;28;20195;-85
2022/06/20 06:46:10;;;;;;;7.07;5.30;;;15.10;99.90;;;;;;5032085;28;20277;-84
2022/06/20 06:49:00;;;;;;;5.88;5.43;;;15.10;99.90;;;;;;5052210;28;20279;-84
2022/06/20 06:51:40;;;;;;;5.82;5.32;;;15.10;99.90;;;;;;5033113;28;20211;-85
2022/06/20 06:54:19;;;;;;;6.10;5.50;;;15.00;99.90;;;;;;5033446;28;20648;-83
2022/06/20 06:57:02;;;;;;;7.80;7.10;;;15.00;99.90;;;;;;5024886;28;20226;-83
2022/06/20 06:59:35;;;;;;;6.65;5.95;;;15.00;99.90;;;;;;5022697;28;20163;-82
2022/06/20 07:02:03;;;;;;;7.25;6.65;;;15.00;99.90;;;;;;5028101;28;20214;-82
2022/06/20 07:04:34;;;;;;;10.32;7.10;;;14.90;99.90;;;;;;5029594;28;20222;-82
2022/06/20 07:07:32;;;;;;;8.38;7.50;;;14.80;99.90;;;;;;5029350;28;20179;-84
2022/06/20 07:09:58;;;;;;;8.38;7.57;;;14.90;99.90;;;;;;5022832;28;20202;-80
2022/06/20 07:12:42;;;;;;;9.20;8.23;;;14.90;99.90;;;;;;5031093;28;20214;-85
2022/06/20 07:15:29;;;;;;;9.02;7.47;;;14.90;99.90;;;;;;5046695;28;20178;-81
2022/06/20 07:18:11;;;;;;;8.32;7.53;;;14.90;99.90;;;;;;5027544;28;20175;-82
2022/06/20 07:20:40;;;;;;;10.63;9.52;;;14.90;99.90;;;;;;5044368;28;20311;-83
2022/06/20 07:23:11;;;;;;;10.43;8.18;;;14.90;99.90;;;;;;5029328;28;20179;-82
2022/06/20 07:25:40;;;;;;;10.27;9.30;;;14.90;99.90;;;;;;5028079;28;20198;-83
2022/06/20 07:28:34;;;;;;;10.07;9.05;;;14.80;99.90;;;;;;5043398;28;20183;-82
2022/06/20 07:31:04;;;;;;;10.15;9.10;;;14.90;99.90;;;;;;5028429;28;20285;-83
2022/06/20 07:33:46;;;;;;;12.40;9.88;;;15.00;99.90;;;;;;5018688;28;20179;-81
2022/06/20 07:36:15;;;;;;;12.15;10.25;;;14.90;99.90;;;;;;5026475;28;20204;-81
2022/06/20 07:38:47;;;;;;;11.18;9.73;;;14.90;99.90;;;;;;5043351;28;20183;-81
2022/06/20 07:41:19;;;;;;;10.68;9.55;;;15.00;99.90;;;;;;5042691;28;20217;-83
2022/06/20 07:44:05;;;;;;;11.13;9.73;;;15.00;99.90;;;;;;5026838;28;20194;-85
2022/06/20 07:46:41;;;;;;;12.05;10.75;;;15.00;99.90;;;;;;5029553;28;20663;-84
2022/06/20 07:49:14;;;;;;;12.23;9.40;;;14.80;99.90;;;;;;5020059;28;20191;-85
2022/06/20 07:51:43;;;;;;;12.55;10.60;;;14.90;99.90;;;;;;5019757;28;20266;-85
2022/06/20 07:54:33;;;;;;;12.73;10.13;;;15.10;99.90;;;;;;5031622;28;20644;-84
2022/06/20 07:57:28;;;;;;;10.13;9.10;;;15.30;99.90;;;;;;5029907;28;20644;-85
2022/06/20 08:00:06;;;;;;;9.90;8.38;;;15.20;99.90;;;;;;5030320;28;20195;-85
2022/06/20 08:02:46;;;;;;;9.90;8.63;;;15.10;99.90;;;;;;5047437;28;20175;-88
2022/06/20 08:05:32;;;;;;;9.68;8.68;;;15.10;99.90;;;;;;5033738;28;20182;-86
2022/06/20 08:08:11;;;;;;;10.07;8.40;;;15.10;99.90;;;;;;5023501;28;20195;-84
2022/06/20 08:11:02;;;;;;;11.38;8.75;;;15.10;99.90;;;;;;5019866;28;20206;-85
2022/06/20 08:13:41;;;;;;;9.80;7.57;;;15.10;99.90;;;;;;5017332;28;20533;-84
2022/06/20 08:16:14;;;;;;;8.15;6.68;;;14.90;99.90;;;;;;5030874;28;20555;-84
2022/06/20 08:18:40;;;;;;;7.60;5.97;;;14.90;99.90;;;;;;5047931;28;20186;-85
2022/06/20 08:21:26;;;;;;;6.55;5.07;;;15.00;99.90;;;;;;5045681;28;20244;-84
2022/06/20 08:24:02;;;;;;;7.70;5.20;;;15.10;99.90;;;;;;5046033;28;20183;-85
2022/06/20 08:26:32;;;;;;;6.93;5.10;;;15.10;99.90;;;;;;5030670;28;20628;-84
2022/06/20 08:29:03;;;;;;;5.00;4.50;;;15.20;99.90;;;;;;5030837;28;20212;-85
2022/06/20 08:31:40;;;;;;;6.13;4.40;;;15.30;99.90;;;;;;5030854;28;20814;-86
2022/06/20 08:34:32;;;;;;;8.50;4.35;;;15.50;99.90;;;;;;5016974;28;20218;-84
2022/06/20 08:37:16;;;;;;;5.22;2.75;;;15.50;99.90;;;;;;5044294;28;20179;-85
2022/06/20 08:39:51;;;;;;;3.75;2.42;;;15.50;99.90;;;;;;5030820;28;20541;-85
2022/06/20 08:42:32;;;;;;;2.88;2.50;;;15.50;99.90;;;;;;5046265;28;20183;-84
2022/06/20 08:45:04;;;;;;;2.33;2.10;;;15.50;99.90;;;;;;5021674;28;20187;-85
2022/06/20 08:48:00;;;;;;;1.80;1.50;;;15.40;99.90;;;;;;5031114;28;20677;-85
2022/06/20 08:50:54;;;;;;;3.30;1.70;;;15.20;99.90;;;;;;5030597;28;20215;-85
2022/06/20 08:53:34;;;;;;;2.55;1.50;;;15.20;99.90;;;;;;5045748;28;20628;-84
2022/06/20 08:56:23;;;;;;;5.18;1.90;;;15.10;99.90;;;;;;5029435;28;20172;-84
2022/06/20 08:58:58;;;;;;;3.92;1.88;;;15.10;99.90;;;;;;5029786;28;20257;-84
2022/06/20 09:01:42;;;;;;;3.20;2.20;;;15.10;99.90;;;;;;5017768;28;20206;-84
2022/06/20 09:04:32;;;;;;;3.00;1.83;;;15.10;99.90;;;;;;5029511;28;20191;-84
2022/06/20 09:07:20;;;;;;;3.90;1.90;;;15.10;99.90;;;;;;5024725;28;20166;-85
2022/06/20 09:10:15;;;;;;;4.30;2.00;;;15.10;99.90;;;;;;5029588;28;20179;-85
2022/06/20 09:13:03;;;;;;;4.07;2.25;;;15.00;99.90;;;;;;5030319;28;20213;-84
2022/06/20 09:16:16;;;;;;;2.70;2.08;;;15.10;99.90;;;;;;5019936;28;20541;-85
2022/06/20 09:19:03;;;;;;;3.42;1.58;;;15.20;99.90;;;;;;4960048;28;20193;-85
2022/06/20 09:21:48;;;;;;;3.55;1.42;;;15.40;99.90;;;;;;5023285;28;20223;-85
2022/06/20 09:24:41;;;;;;;4.45;1.80;;;15.30;99.90;;;;;;5026400;28;20684;-86
2022/06/20 09:27:14;;;;;;;3.03;1.70;;;15.40;99.90;;;;;;5022908;28;20199;-85
2022/06/20 09:29:45;;;;;;;2.00;1.42;;;15.50;99.90;;;;;;5043583;28;20260;-85
2022/06/20 09:32:35;;;;;;;2.70;1.75;;;15.40;99.90;;;;;;5021925;28;20215;-85
2022/06/20 09:35:16;;;;;;;5.70;2.20;;;15.40;99.90;;;;;;5042385;28;20179;-85
2022/06/20 09:37:45;;;;;;;4.43;1.98;;;15.30;99.90;;;;;;5015339;28;20178;-85
2022/06/20 09:40:28;;;;;;;3.47;2.10;;;15.30;99.90;;;;;;5011980;28;20194;-86
2022/06/20 09:43:04;;;;;;;9.05;2.05;;;15.30;99.90;;;;;;5014021;28;20664;-85
2022/06/20 09:45:49;;;;;;;6.20;2.15;;;15.30;99.90;;;;;;5038763;28;20586;-85
2022/06/20 09:48:43;;;;;;;6.28;1.92;;;15.10;99.90;;;;;;5038503;28;20182;-84
2022/06/20 09:51:13;;;;;;;6.47;2.20;;;15.10;99.90;;;;;;5022897;28;20206;-85
2022/06/20 09:54:01;;;;;;;4.22;1.70;;;15.20;99.90;;;;;;5040102;28;20670;-84
2022/06/20 09:56:32;;;;;;;5.65;2.25;;;15.40;99.90;;;;;;5020551;28;20236;-84
2022/06/20 09:59:20;;;;;;;8.48;2.60;;;15.70;99.90;;;;;;5014487;28;20190;-85
2022/06/20 10:01:54;;;;;;;4.25;2.10;;;16.10;99.90;;;;;;5021572;28;20203;-85
2022/06/20 10:04:34;;;;;;;7.65;2.15;;;16.20;99.90;;;;;;5014268;28;20547;-85
2022/06/20 10:07:03;;;;;;;6.97;2.10;;;16.20;99.90;;;;;;5026418;28;20488;-85
2022/06/20 10:09:51;;;;;;;7.43;2.42;;;16.30;99.90;;;;;;5016082;28;20189;-83
2022/06/20 10:12:22;;;;;;;6.60;2.00;;;16.50;99.90;;;;;;5039720;28;20230;-84
2022/06/20 10:15:04;;;;;;;8.25;2.55;;;16.50;99.90;;;;;;5018265;28;20560;-85
2022/06/20 10:18:04;;;;;;;5.28;1.73;;;16.50;99.90;;;;;;5040778;28;20558;-82
2022/06/20 10:20:51;;;;;;;4.45;1.63;;;16.60;99.90;;;;;;5041400;28;20337;-84
2022/06/20 10:23:54;;;;;;;9.20;2.33;;;16.60;99.90;;;;;;5020397;28;20690;-81
2022/06/20 10:26:44;;;;;;;5.78;2.13;;;17.00;99.90;;;;;;5040713;28;20672;-84
2022/06/20 10:29:45;;;;;;;8.13;1.92;;;17.30;99.90;;;;;;5025416;28;20559;-83
2022/06/20 10:32:24;;;;;;;6.15;2.90;;;17.50;89.80;;;;;;5012020;28;20288;-84
2022/06/20 10:35:17;;;;;;;6.00;2.45;;;17.60;12.10;;;;;;5025763;28;20265;-84
2022/06/20 10:37:57;;;;;;;7.18;2.88;;;17.50;16.30;;;;;;5041459;28;20601;-84
2022/06/20 10:40:38;;;;;;;6.13;2.42;;;17.50;71.50;;;;;;5013720;28;20198;-85
2022/06/20 10:43:18;;;;;;;6.50;2.30;;;17.50;91.70;;;;;;5024755;28;20194;-85
2022/06/20 10:46:04;;;;;;;6.57;3.03;;;17.40;79.70;;;;;;5041453;28;20187;-82
2022/06/20 10:49:07;;;;;;;8.85;2.95;;;17.40;84.50;;;;;;5016379;28;20202;-83
2022/06/20 10:52:19;;;;;;;6.95;2.80;;;17.40;97.70;;;;;;5024459;28;20263;-82
2022/06/20 10:54:55;;;;;;;9.55;2.95;;;17.40;75.70;;;;;;5021422;28;20191;-84
2022/06/20 10:57:51;;;;;;;6.68;2.80;;;17.50;56.30;;;;;;5024208;28;20186;-82
2022/06/20 11:00:20;;;;;;;6.43;3.30;;;17.60;63.80;;;;;;5016042;28;20218;-81
2022/06/20 11:03:06;;;;;;;9.15;3.05;;;17.70;56.90;;;;;;5040384;28;20931;-85
2022/06/20 11:05:45;;;;;;;5.25;2.95;;;17.80;28.30;;;;;;5024495;28;20175;-85
2022/06/20 11:08:45;;;;;;;6.07;2.67;;;18.00;63.10;;;;;;5041774;28;20191;-82
2022/06/20 11:11:36;;;;;;;4.53;2.60;;;18.10;29.50;;;;;;5025320;28;20210;-88
2022/06/20 11:14:17;;;;;;;5.60;3.17;;;18.10;18.00;;;;;;5042789;28;20640;-85
2022/06/20 11:17:02;;;;;;;10.02;3.30;;;17.90;1.00;;;;;;5025617;28;20218;-85
2022/06/20 11:20:01;;;;;;;8.50;3.58;;;17.80;18.40;;;;;;5013465;28;20539;-82
2022/06/20 11:22:38;;;;;;;6.07;3.35;;;17.90;16.80;;;;;;5040213;28;20669;-85
2022/06/20 11:25:26;;;;;;;5.18;3.42;;;18.00;19.40;;;;;;5040649;28;20190;-83
2022/06/20 11:27:55;;;;;;;6.88;3.58;;;18.10;21.50;;;;;;5024027;28;20183;-84
2022/06/20 11:30:41;;;;;;;7.35;3.95;;;18.20;1.00;;;;;;5017803;28;20206;-84
2022/06/20 11:33:15;;;;;;;5.97;3.20;;;18.30;1.00;;;;;;5015581;28;20206;-84
2022/06/20 11:36:06;;;;;;;8.48;3.17;;;18.50;1.00;;;;;;5023995;28;20278;-84
2022/06/20 11:38:45;;;;;;;5.35;3.28;;;18.70;1.00;;;;;;5025193;28;20193;-81
2022/06/20 11:41:50;;;;;;;6.78;3.58;;;19.00;1.00;;;;;;5025251;28;20281;-83
2022/06/20 11:44:16;;;;;;;8.30;3.40;;;19.00;1.00;;;;;;5016050;28;20686;-84
2022/06/20 11:46:53;;;;;;;5.60;3.00;;;18.80;1.00;;;;;;5016798;28;20187;-84
2022/06/20 11:49:51;;;;;;;5.32;2.60;;;18.60;1.00;;;;;;5015658;28;20175;-84
2022/06/20 11:53:19;;;;;;;6.10;3.17;;;18.50;1.00;;;;;;5014221;28;20229;-83
2022/06/20 11:55:58;;;;;;;7.65;3.35;;;18.50;1.00;;;;;;4949711;28;20220;-84
2022/06/20 11:58:57;;;;;;;7.93;2.67;;;18.60;1.00;;;;;;5013643;28;20660;-84
2022/06/20 12:01:28;;;;;;;4.82;2.45;;;18.50;1.00;;;;;;5024729;28;20214;-83
2022/06/20 12:04:07;;;;;;;9.00;3.35;;;18.50;1.00;;;;;;5018936;28;20186;-84
2022/06/20 12:06:45;;;;;;;4.22;2.20;;;18.40;5.10;;;;;;5017313;28;20633;-84
2022/06/20 12:09:10;;;;;;;7.95;3.13;;;18.30;1.00;;;;;;5026796;28;20262;-85
2022/06/20 12:12:04;;;;;;;9.02;2.97;;;18.30;1.00;;;;;;5026322;28;20690;-84
2022/06/20 12:14:35;;;;;;;4.85;2.42;;;18.40;1.00;;;;;;5017879;28;20183;-84
2022/06/20 12:17:19;;;;;;;8.13;2.65;;;18.50;1.00;;;;;;5012733;28;20290;-84
2022/06/20 12:23:18;;;;;;;4.95;2.35;;;18.90;1.00;;;;;;5023190;28;20542;-86
2022/06/20 12:25:50;;;;;;;8.27;2.65;;;18.90;1.00;;;;;;5038765;28;20210;-85
2022/06/20 12:28:30;;;;;;;5.72;2.28;;;19.10;1.00;;;;;;5025057;28;20571;-86
2022/06/20 12:31:11;;;;;;;4.85;2.47;;;19.40;1.00;;;;;;5013622;28;20226;-84
2022/06/20 12:33:42;;;;;;;7.07;2.13;;;19.70;1.00;;;;;;5007921;28;20190;-85
2022/06/20 12:36:26;;;;;;;5.00;2.00;;;20.10;1.00;;;;;;5023794;28;20175;-85
2022/06/20 12:39:18;;;;;;;4.43;2.10;;;20.20;14.40;;;;;;5022102;28;20214;-85
2022/06/20 12:41:51;;;;;;;4.60;2.28;;;20.00;1.00;;;;;;5022583;28;20590;-84
2022/06/20 12:44:50;;;;;;;4.50;1.95;;;20.00;80.00;;;;;;5022279;28;20186;-82
2022/06/20 12:47:27;;;;;;;7.55;2.22;;;20.10;99.90;;;;;;5022878;28;20183;-85
2022/06/20 12:50:11;;;;;;;8.57;1.95;;;19.90;1.00;;;;;;5038167;28;20209;-85
2022/06/20 12:52:43;;;;;;;4.28;1.67;;;19.70;99.90;;;;;;5006837;28;20214;-84
2022/06/20 12:55:40;;;;;;;5.45;1.95;;;19.40;1.00;;;;;;5022641;28;20191;-86
2022/06/20 12:58:31;;;;;;;5.68;2.28;;;19.40;99.90;;;;;;5036436;28;20186;-85
2022/06/20 13:01:02;;;;;;;3.88;1.77;;;19.20;64.70;;;;;;5037245;28;20198;-85
2022/06/20 13:03:52;;;;;;;5.05;2.20;;;19.30;99.90;;;;;;5037693;28;20866;-85
2022/06/20 13:06:39;;;;;;;3.03;1.95;;;19.50;1.00;;;;;;5022705;28;20280;-84
2022/06/20 13:09:08;;;;;;;10.95;2.20;;;19.70;13.50;;;;;;5015969;28;20179;-86
2022/06/20 13:11:45;;;;;;;4.95;1.90;;;19.80;1.00;;;;;;5022888;28;20242;-86
2022/06/20 13:14:31;;;;;;;9.32;3.40;;;19.90;1.00;;;;;;5022938;28;20182;-83
2022/06/20 13:17:13;;;;;;;6.10;1.88;;;20.30;1.00;;;;;;5023794;28;20183;-86
2022/06/20 13:20:24;;;;;;;3.47;1.30;;;20.50;1.00;;;;;;5040199;28;20175;-85
2022/06/20 13:23:13;;;;;;;27.40;9.20;;;20.30;99.90;;;;;;5023899;28;20191;-86
2022/06/20 13:25:50;;;;;;;83.97;26.45;;;20.10;99.90;;;;;;5016032;28;20196;-86
2022/06/20 13:28:46;;;;;;;86.28;26.55;;;20.00;1.00;;;;;;5040319;28;20251;-83
2022/06/20 13:31:13;;;;;;;19.48;8.63;;;19.90;99.90;;;;;;5024329;28;21249;-85
2022/06/20 13:33:47;;;;;;;49.78;16.52;;;19.80;99.90;;;;;;5024003;28;20278;-87
2022/06/20 13:36:26;;;;;;;18.17;5.60;;;19.80;99.90;;;;;;5018360;28;20178;-83
2022/06/20 13:39:16;;;;;;;14.88;5.70;;;19.70;1.00;;;;;;5022755;28;20265;-87
2022/06/20 13:42:08;;;;;;;16.95;6.20;;;19.70;1.00;;;;;;5021423;28;20764;-84
2022/06/20 13:44:43;;;;;;;7.22;3.63;;;20.00;99.90;;;;;;5019695;28;20282;-84
2022/06/20 13:47:29;;;;;;;9.70;4.28;;;20.30;1.00;;;;;;5013280;28;20277;-87
2022/06/20 13:50:03;;;;;;;3.90;1.67;;;20.30;99.90;;;;;;5022094;28;20374;-86
2022/06/20 13:52:52;;;;;;;5.00;2.08;;;20.10;1.00;;;;;;5016387;28;20687;-87